sensor_id;sensor_type;location;lat;lon;timestamp;temperature;humidity
71396;DHT22;59888;55.814;37.132;2023-12-04T00:02:03;-3.76;64.19
71396;DHT22;59888;55.814;37.132;2023-12-04T00:04:29;-3.77;64.30
71396;DHT22;59888;55.814;37.132;2023-12-04T00:06:55;-3.82;64.47
71396;DHT22;59888;55.814;37.132;2023-12-04T00:09:22;-3.85;64.44
71396;DHT22;59888;55.814;37.132;2023-12-04T00:11:50;-3.87;64.70
71396;DHT22;59888;55.814;37.132;2023-12-04T00:14:16;-3.84;64.49
71396;DHT22;59888;55.814;37.132;2023-12-04T00:16:43;-3.80;64.88
71396;DHT22;59888;55.814;37.132;2023-12-04T00:19:09;-3.81;64.59
71396;DHT22;59888;55.814;37.132;2023-12-04T00:21:35;-3.85;64.62
71396;DHT22;59888;55.814;37.132;2023-12-04T00:24:01;-3.87;64.54
71396;DHT22;59888;55.814;37.132;2023-12-04T00:26:28;-3.94;65.04
71396;DHT22;59888;55.814;37.132;2023-12-04T00:28:54;-3.90;65.22
71396;DHT22;59888;55.814;37.132;2023-12-04T00:31:21;-3.94;65.17
71396;DHT22;59888;55.814;37.132;2023-12-04T00:33:47;-4.02;65.29
71396;DHT22;59888;55.814;37.132;2023-12-04T00:36:31;-3.99;64.92
71396;DHT22;59888;55.814;37.132;2023-12-04T00:38:57;-4.01;65.23
71396;DHT22;59888;55.814;37.132;2023-12-04T00:41:23;-4.07;64.99
71396;DHT22;59888;55.814;37.132;2023-12-04T00:43:50;-4.08;65.26
71396;DHT22;59888;55.814;37.132;2023-12-04T00:46:16;-4.05;65.27
71396;DHT22;59888;55.814;37.132;2023-12-04T00:48:42;-4.04;64.90
71396;DHT22;59888;55.814;37.132;2023-12-04T00:51:08;-4.05;65.14
71396;DHT22;59888;55.814;37.132;2023-12-04T00:53:35;-4.06;65.01
71396;DHT22;59888;55.814;37.132;2023-12-04T00:56:01;-4.05;65.03
71396;DHT22;59888;55.814;37.132;2023-12-04T00:58:27;-4.06;65.04
71396;DHT22;59888;55.814;37.132;2023-12-04T01:00:54;-4.00;64.98
71396;DHT22;59888;55.814;37.132;2023-12-04T01:03:41;-4.07;64.97
71396;DHT22;59888;55.814;37.132;2023-12-04T01:06:26;-4.14;65.00
71396;DHT22;59888;55.814;37.132;2023-12-04T01:08:55;-4.17;64.99
71396;DHT22;59888;55.814;37.132;2023-12-04T01:11:24;-4.24;64.97
71396;DHT22;59888;55.814;37.132;2023-12-04T01:14:15;-4.31;64.80
71396;DHT22;59888;55.814;37.132;2023-12-04T01:16:41;-4.38;65.06
71396;DHT22;59888;55.814;37.132;2023-12-04T01:19:08;-4.42;65.01
71396;DHT22;59888;55.814;37.132;2023-12-04T01:21:34;-4.45;65.00
71396;DHT22;59888;55.814;37.132;2023-12-04T01:24:21;-4.46;65.04
71396;DHT22;59888;55.814;37.132;2023-12-04T01:26:47;-4.42;64.96
71396;DHT22;59888;55.814;37.132;2023-12-04T01:29:13;-4.41;65.07
71396;DHT22;59888;55.814;37.132;2023-12-04T01:31:39;-4.40;65.06
71396;DHT22;59888;55.814;37.132;2023-12-04T01:34:14;-4.42;64.77
71396;DHT22;59888;55.814;37.132;2023-12-04T01:36:43;-4.43;64.98
71396;DHT22;59888;55.814;37.132;2023-12-04T01:39:09;-4.54;65.31
71396;DHT22;59888;55.814;37.132;2023-12-04T01:41:35;-4.60;65.01
71396;DHT22;59888;55.814;37.132;2023-12-04T01:44:01;-4.66;65.00
71396;DHT22;59888;55.814;37.132;2023-12-04T01:46:27;-4.75;65.31
71396;DHT22;59888;55.814;37.132;2023-12-04T01:48:55;-4.74;65.25
71396;DHT22;59888;55.814;37.132;2023-12-04T01:51:23;-4.70;65.24
71396;DHT22;59888;55.814;37.132;2023-12-04T01:53:49;-4.70;64.98
71396;DHT22;59888;55.814;37.132;2023-12-04T01:56:16;-4.79;64.85
71396;DHT22;59888;55.814;37.132;2023-12-04T01:58:43;-4.86;64.88
71396;DHT22;59888;55.814;37.132;2023-12-04T02:01:10;-4.90;65.00
71396;DHT22;59888;55.814;37.132;2023-12-04T02:03:41;-4.91;64.90
71396;DHT22;59888;55.814;37.132;2023-12-04T02:06:09;-4.95;64.92
71396;DHT22;59888;55.814;37.132;2023-12-04T02:08:40;-4.99;64.85
71396;DHT22;59888;55.814;37.132;2023-12-04T02:11:14;-4.99;64.71
71396;DHT22;59888;55.814;37.132;2023-12-04T02:13:45;-5.00;64.91
71396;DHT22;59888;55.814;37.132;2023-12-04T02:16:13;-4.99;64.85
71396;DHT22;59888;55.814;37.132;2023-12-04T02:18:41;-5.04;64.66
71396;DHT22;59888;55.814;37.132;2023-12-04T02:21:08;-5.10;64.66
71396;DHT22;59888;55.814;37.132;2023-12-04T02:23:52;-5.17;64.66
71396;DHT22;59888;55.814;37.132;2023-12-04T02:26:23;-5.24;64.66
71396;DHT22;59888;55.814;37.132;2023-12-04T02:28:57;-5.28;64.76
71396;DHT22;59888;55.814;37.132;2023-12-04T02:31:26;-5.32;64.84
71396;DHT22;59888;55.814;37.132;2023-12-04T02:33:55;-5.33;64.72
71396;DHT22;59888;55.814;37.132;2023-12-04T02:36:24;-5.39;64.86
71396;DHT22;59888;55.814;37.132;2023-12-04T02:38:52;-5.33;64.79
71396;DHT22;59888;55.814;37.132;2023-12-04T02:41:19;-5.31;64.87
71396;DHT22;59888;55.814;37.132;2023-12-04T02:43:46;-5.29;64.89
71396;DHT22;59888;55.814;37.132;2023-12-04T02:46:12;-5.24;64.82
71396;DHT22;59888;55.814;37.132;2023-12-04T02:48:39;-5.14;64.74
71396;DHT22;59888;55.814;37.132;2023-12-04T02:51:05;-5.04;64.59
71396;DHT22;59888;55.814;37.132;2023-12-04T02:53:31;-5.08;64.35
71396;DHT22;59888;55.814;37.132;2023-12-04T02:56:13;-5.11;64.39
71396;DHT22;59888;55.814;37.132;2023-12-04T02:58:39;-5.15;64.50
71396;DHT22;59888;55.814;37.132;2023-12-04T03:01:08;-5.17;64.60
71396;DHT22;59888;55.814;37.132;2023-12-04T03:03:35;-5.15;64.71
71396;DHT22;59888;55.814;37.132;2023-12-04T03:06:04;-5.23;65.95
71396;DHT22;59888;55.814;37.132;2023-12-04T03:08:30;-5.24;66.78
71396;DHT22;59888;55.814;37.132;2023-12-04T03:10:56;-5.23;66.72
71396;DHT22;59888;55.814;37.132;2023-12-04T03:13:23;-5.19;65.69
71396;DHT22;59888;55.814;37.132;2023-12-04T03:15:49;-5.23;66.30
71396;DHT22;59888;55.814;37.132;2023-12-04T03:18:15;-5.18;65.94
71396;DHT22;59888;55.814;37.132;2023-12-04T03:20:42;-5.08;65.78
71396;DHT22;59888;55.814;37.132;2023-12-04T03:23:08;-5.05;65.46
71396;DHT22;59888;55.814;37.132;2023-12-04T03:25:34;-5.13;65.53
71396;DHT22;59888;55.814;37.132;2023-12-04T03:28:18;-5.05;65.69
71396;DHT22;59888;55.814;37.132;2023-12-04T03:30:47;-5.09;65.50
71396;DHT22;59888;55.814;37.132;2023-12-04T03:33:21;-5.09;65.31
71396;DHT22;59888;55.814;37.132;2023-12-04T03:35:48;-5.03;65.41
71396;DHT22;59888;55.814;37.132;2023-12-04T03:38:14;-5.05;65.27
71396;DHT22;59888;55.814;37.132;2023-12-04T03:40:40;-5.08;65.54
71396;DHT22;59888;55.814;37.132;2023-12-04T03:43:07;-5.09;66.36
71396;DHT22;59888;55.814;37.132;2023-12-04T03:45:49;-5.04;66.42
71396;DHT22;59888;55.814;37.132;2023-12-04T03:48:18;-5.04;66.35
71396;DHT22;59888;55.814;37.132;2023-12-04T03:50:44;-5.01;66.29
71396;DHT22;59888;55.814;37.132;2023-12-04T03:53:13;-4.95;66.36
71396;DHT22;59888;55.814;37.132;2023-12-04T03:55:58;-4.90;66.03
71396;DHT22;59888;55.814;37.132;2023-12-04T03:58:24;-4.95;66.34
71396;DHT22;59888;55.814;37.132;2023-12-04T04:00:59;-5.00;66.02
71396;DHT22;59888;55.814;37.132;2023-12-04T04:03:56;-5.04;66.13
71396;DHT22;59888;55.814;37.132;2023-12-04T04:06:29;-5.09;66.31
71396;DHT22;59888;55.814;37.132;2023-12-04T04:09:14;-5.16;66.79
71396;DHT22;59888;55.814;37.132;2023-12-04T04:11:43;-5.17;66.87
71396;DHT22;59888;55.814;37.132;2023-12-04T04:14:11;-5.14;66.60
71396;DHT22;59888;55.814;37.132;2023-12-04T04:16:47;-5.13;66.41
71396;DHT22;59888;55.814;37.132;2023-12-04T04:19:14;-5.09;65.96
71396;DHT22;59888;55.814;37.132;2023-12-04T04:21:40;-5.13;66.54
71396;DHT22;59888;55.814;37.132;2023-12-04T04:24:09;-5.08;66.87
71396;DHT22;59888;55.814;37.132;2023-12-04T04:26:35;-5.12;67.00
71396;DHT22;59888;55.814;37.132;2023-12-04T04:29:01;-5.07;66.71
71396;DHT22;59888;55.814;37.132;2023-12-04T04:31:27;-5.05;66.24
71396;DHT22;59888;55.814;37.132;2023-12-04T04:33:54;-5.08;66.80
71396;DHT22;59888;55.814;37.132;2023-12-04T04:36:20;-5.11;66.33
71396;DHT22;59888;55.814;37.132;2023-12-04T04:38:46;-5.10;66.33
71396;DHT22;59888;55.814;37.132;2023-12-04T04:41:15;-5.08;66.20
71396;DHT22;59888;55.814;37.132;2023-12-04T04:43:44;-5.08;66.36
71396;DHT22;59888;55.814;37.132;2023-12-04T04:46:10;-5.05;66.04
71396;DHT22;59888;55.814;37.132;2023-12-04T04:48:37;-5.08;66.17
71396;DHT22;59888;55.814;37.132;2023-12-04T04:51:04;-5.08;66.28
71396;DHT22;59888;55.814;37.132;2023-12-04T04:53:53;-5.07;66.15
71396;DHT22;59888;55.814;37.132;2023-12-04T04:56:24;-5.00;66.30
71396;DHT22;59888;55.814;37.132;2023-12-04T04:58:50;-4.99;66.16
71396;DHT22;59888;55.814;37.132;2023-12-04T05:01:18;-5.02;66.04
71396;DHT22;59888;55.814;37.132;2023-12-04T05:03:54;-4.99;65.88
71396;DHT22;59888;55.814;37.132;2023-12-04T05:06:41;-5.00;65.69
71396;DHT22;59888;55.814;37.132;2023-12-04T05:09:07;-5.09;65.98
71396;DHT22;59888;55.814;37.132;2023-12-04T05:11:33;-5.04;65.60
71396;DHT22;59888;55.814;37.132;2023-12-04T05:17:17;-5.09;65.72
71396;DHT22;59888;55.814;37.132;2023-12-04T05:19:44;-5.10;66.11
71396;DHT22;59888;55.814;37.132;2023-12-04T05:22:10;-5.07;65.75
71396;DHT22;59888;55.814;37.132;2023-12-04T05:24:36;-5.10;65.65
71396;DHT22;59888;55.814;37.132;2023-12-04T05:27:02;-5.20;68.20
71396;DHT22;59888;55.814;37.132;2023-12-04T05:29:31;-5.26;68.90
71396;DHT22;59888;55.814;37.132;2023-12-04T05:31:59;-5.30;70.19
71396;DHT22;59888;55.814;37.132;2023-12-04T05:34:26;-5.29;69.96
71396;DHT22;59888;55.814;37.132;2023-12-04T05:36:52;-5.26;68.60
71396;DHT22;59888;55.814;37.132;2023-12-04T05:39:18;-5.18;68.68
71396;DHT22;59888;55.814;37.132;2023-12-04T05:41:44;-5.20;68.81
71396;DHT22;59888;55.814;37.132;2023-12-04T05:44:13;-5.22;68.76
71396;DHT22;59888;55.814;37.132;2023-12-04T05:46:47;-5.23;68.87
71396;DHT22;59888;55.814;37.132;2023-12-04T05:49:16;-5.19;68.81
71396;DHT22;59888;55.814;37.132;2023-12-04T05:51:42;-5.17;69.23
71396;DHT22;59888;55.814;37.132;2023-12-04T05:54:08;-5.11;68.69
71396;DHT22;59888;55.814;37.132;2023-12-04T05:56:34;-5.08;67.72
71396;DHT22;59888;55.814;37.132;2023-12-04T05:59:00;-5.10;67.89
71396;DHT22;59888;55.814;37.132;2023-12-04T06:01:28;-5.12;66.66
71396;DHT22;59888;55.814;37.132;2023-12-04T06:04:10;-5.18;67.10
71396;DHT22;59888;55.814;37.132;2023-12-04T06:06:37;-5.16;67.05
71396;DHT22;59888;55.814;37.132;2023-12-04T06:09:03;-5.18;67.20
71396;DHT22;59888;55.814;37.132;2023-12-04T06:11:29;-5.15;67.16
71396;DHT22;59888;55.814;37.132;2023-12-04T06:13:56;-5.09;66.59
71396;DHT22;59888;55.814;37.132;2023-12-04T06:16:22;-5.08;66.88
71396;DHT22;59888;55.814;37.132;2023-12-04T06:18:48;-5.03;66.85
71396;DHT22;59888;55.814;37.132;2023-12-04T06:21:15;-4.94;65.96
71396;DHT22;59888;55.814;37.132;2023-12-04T06:23:42;-4.97;66.07
71396;DHT22;59888;55.814;37.132;2023-12-04T06:26:09;-4.96;66.16
71396;DHT22;59888;55.814;37.132;2023-12-04T06:28:35;-4.98;66.06
71396;DHT22;59888;55.814;37.132;2023-12-04T06:31:02;-5.08;65.89
71396;DHT22;59888;55.814;37.132;2023-12-04T06:33:29;-5.03;66.07
71396;DHT22;59888;55.814;37.132;2023-12-04T06:35:56;-5.07;66.01
71396;DHT22;59888;55.814;37.132;2023-12-04T06:38:25;-5.05;65.98
71396;DHT22;59888;55.814;37.132;2023-12-04T06:40:52;-5.02;66.06
71396;DHT22;59888;55.814;37.132;2023-12-04T06:43:18;-4.95;65.70
71396;DHT22;59888;55.814;37.132;2023-12-04T06:45:45;-4.96;65.48
71396;DHT22;59888;55.814;37.132;2023-12-04T06:48:15;-5.03;65.49
71396;DHT22;59888;55.814;37.132;2023-12-04T06:50:41;-5.01;65.40
71396;DHT22;59888;55.814;37.132;2023-12-04T06:53:07;-4.99;65.88
71396;DHT22;59888;55.814;37.132;2023-12-04T06:55:45;-4.99;65.81
71396;DHT22;59888;55.814;37.132;2023-12-04T06:58:14;-4.91;65.52
71396;DHT22;59888;55.814;37.132;2023-12-04T07:00:40;-4.85;65.46
71396;DHT22;59888;55.814;37.132;2023-12-04T07:03:07;-4.85;65.23
71396;DHT22;59888;55.814;37.132;2023-12-04T07:05:38;-4.84;64.88
71396;DHT22;59888;55.814;37.132;2023-12-04T07:08:05;-4.89;65.01
71396;DHT22;59888;55.814;37.132;2023-12-04T07:10:31;-4.85;64.95
71396;DHT22;59888;55.814;37.132;2023-12-04T07:13:00;-4.85;65.18
71396;DHT22;59888;55.814;37.132;2023-12-04T07:15:31;-4.74;65.13
71396;DHT22;59888;55.814;37.132;2023-12-04T07:17:57;-4.71;64.57
71396;DHT22;59888;55.814;37.132;2023-12-04T07:20:23;-4.78;64.38
71396;DHT22;59888;55.814;37.132;2023-12-04T07:22:50;-4.84;64.68
71396;DHT22;59888;55.814;37.132;2023-12-04T07:25:27;-4.79;64.57
71396;DHT22;59888;55.814;37.132;2023-12-04T07:27:56;-4.78;64.66
71396;DHT22;59888;55.814;37.132;2023-12-04T07:30:26;-4.70;64.69
71396;DHT22;59888;55.814;37.132;2023-12-04T07:32:52;-4.66;64.24
71396;DHT22;59888;55.814;37.132;2023-12-04T07:39:20;-4.68;64.31
71396;DHT22;59888;55.814;37.132;2023-12-04T07:41:46;-4.68;64.27
71396;DHT22;59888;55.814;37.132;2023-12-04T07:48:12;-4.63;64.17
71396;DHT22;59888;55.814;37.132;2023-12-04T07:50:38;-4.61;64.04
71396;DHT22;59888;55.814;37.132;2023-12-04T07:53:06;-4.72;64.01
71396;DHT22;59888;55.814;37.132;2023-12-04T07:55:37;-4.68;64.19
71396;DHT22;59888;55.814;37.132;2023-12-04T07:58:03;-4.64;64.44
71396;DHT22;59888;55.814;37.132;2023-12-04T08:00:29;-4.54;64.55
71396;DHT22;59888;55.814;37.132;2023-12-04T08:02:55;-4.48;64.29
71396;DHT22;59888;55.814;37.132;2023-12-04T08:05:21;-4.41;64.11
71396;DHT22;59888;55.814;37.132;2023-12-04T08:07:48;-4.38;64.18
71396;DHT22;59888;55.814;37.132;2023-12-04T08:10:14;-4.32;64.11
71396;DHT22;59888;55.814;37.132;2023-12-04T08:12:40;-4.35;64.68
71396;DHT22;59888;55.814;37.132;2023-12-04T08:15:10;-4.34;64.66
71396;DHT22;59888;55.814;37.132;2023-12-04T08:17:37;-4.35;64.55
71396;DHT22;59888;55.814;37.132;2023-12-04T08:20:03;-4.36;64.52
71396;DHT22;59888;55.814;37.132;2023-12-04T08:22:30;-4.37;65.24
71396;DHT22;59888;55.814;37.132;2023-12-04T08:24:57;-4.35;65.01
71396;DHT22;59888;55.814;37.132;2023-12-04T08:27:36;-4.27;65.21
71396;DHT22;59888;55.814;37.132;2023-12-04T08:31:27;-4.21;63.98
71396;DHT22;59888;55.814;37.132;2023-12-04T08:33:53;-4.19;64.72
71396;DHT22;59888;55.814;37.132;2023-12-04T08:36:19;-4.17;66.08
71396;DHT22;59888;55.814;37.132;2023-12-04T08:38:46;-4.14;65.93
71396;DHT22;59888;55.814;37.132;2023-12-04T08:41:12;-4.21;65.59
71396;DHT22;59888;55.814;37.132;2023-12-04T08:43:39;-4.22;66.32
71396;DHT22;59888;55.814;37.132;2023-12-04T08:46:05;-4.22;66.54
71396;DHT22;59888;55.814;37.132;2023-12-04T08:48:33;-4.12;65.88
71396;DHT22;59888;55.814;37.132;2023-12-04T08:50:59;-3.98;64.96
71396;DHT22;59888;55.814;37.132;2023-12-04T08:53:25;-3.92;64.63
71396;DHT22;59888;55.814;37.132;2023-12-04T08:55:51;-3.86;64.35
71396;DHT22;59888;55.814;37.132;2023-12-04T08:58:18;-3.95;65.05
71396;DHT22;59888;55.814;37.132;2023-12-04T09:00:44;-3.97;64.54
71396;DHT22;59888;55.814;37.132;2023-12-04T09:03:10;-3.93;64.88
71396;DHT22;59888;55.814;37.132;2023-12-04T09:05:37;-3.89;64.34
71396;DHT22;59888;55.814;37.132;2023-12-04T09:08:03;-3.94;63.85
71396;DHT22;59888;55.814;37.132;2023-12-04T09:10:29;-3.94;63.30
71396;DHT22;59888;55.814;37.132;2023-12-04T09:12:56;-4.00;61.83
71396;DHT22;59888;55.814;37.132;2023-12-04T09:15:27;-4.09;64.61
71396;DHT22;59888;55.814;37.132;2023-12-04T09:17:53;-3.99;65.13
71396;DHT22;59888;55.814;37.132;2023-12-04T09:20:19;-3.93;63.69
71396;DHT22;59888;55.814;37.132;2023-12-04T09:22:46;-3.92;63.59
71396;DHT22;59888;55.814;37.132;2023-12-04T09:25:12;-3.91;62.70
71396;DHT22;59888;55.814;37.132;2023-12-04T09:27:39;-3.90;62.49
71396;DHT22;59888;55.814;37.132;2023-12-04T09:30:07;-3.83;61.96
71396;DHT22;59888;55.814;37.132;2023-12-04T09:32:34;-3.79;61.96
71396;DHT22;59888;55.814;37.132;2023-12-04T09:35:01;-3.74;62.08
71396;DHT22;59888;55.814;37.132;2023-12-04T09:37:29;-3.72;61.76
71396;DHT22;59888;55.814;37.132;2023-12-04T09:39:56;-3.66;61.86
71396;DHT22;59888;55.814;37.132;2023-12-04T09:42:22;-3.58;61.83
71396;DHT22;59888;55.814;37.132;2023-12-04T09:44:51;-3.54;61.25
71396;DHT22;59888;55.814;37.132;2023-12-04T09:47:18;-3.57;61.25
71396;DHT22;59888;55.814;37.132;2023-12-04T09:49:45;-3.60;61.51
71396;DHT22;59888;55.814;37.132;2023-12-04T09:52:11;-3.61;60.93
71396;DHT22;59888;55.814;37.132;2023-12-04T09:54:44;-3.71;61.12
71396;DHT22;59888;55.814;37.132;2023-12-04T09:57:15;-3.87;60.88
71396;DHT22;59888;55.814;37.132;2023-12-04T09:59:44;-3.99;61.41
71396;DHT22;59888;55.814;37.132;2023-12-04T10:02:13;-3.94;61.87
71396;DHT22;59888;55.814;37.132;2023-12-04T10:04:40;-3.83;61.60
71396;DHT22;59888;55.814;37.132;2023-12-04T10:07:07;-3.77;61.29
71396;DHT22;59888;55.814;37.132;2023-12-04T10:09:34;-3.78;61.12
71396;DHT22;59888;55.814;37.132;2023-12-04T10:12:00;-3.81;61.12
71396;DHT22;59888;55.814;37.132;2023-12-04T10:14:26;-3.82;61.19
71396;DHT22;59888;55.814;37.132;2023-12-04T10:16:52;-3.91;60.73
71396;DHT22;59888;55.814;37.132;2023-12-04T10:19:21;-3.90;61.38
71396;DHT22;59888;55.814;37.132;2023-12-04T10:21:50;-3.84;61.60
71396;DHT22;59888;55.814;37.132;2023-12-04T10:28:28;-3.77;60.91
71396;DHT22;59888;55.814;37.132;2023-12-04T10:31:39;-3.96;61.54
71396;DHT22;59888;55.814;37.132;2023-12-04T10:34:05;-3.98;61.72
71396;DHT22;59888;55.814;37.132;2023-12-04T10:36:32;-3.98;61.53
71396;DHT22;59888;55.814;37.132;2023-12-04T10:39:00;-3.99;61.72
71396;DHT22;59888;55.814;37.132;2023-12-04T10:41:29;-4.02;61.61
71396;DHT22;59888;55.814;37.132;2023-12-04T10:43:57;-4.06;61.44
71396;DHT22;59888;55.814;37.132;2023-12-04T10:46:27;-4.11;61.45
71396;DHT22;59888;55.814;37.132;2023-12-04T10:48:53;-4.11;61.54
71396;DHT22;59888;55.814;37.132;2023-12-04T10:51:22;-4.07;61.57
71396;DHT22;59888;55.814;37.132;2023-12-04T10:53:49;-4.01;61.72
71396;DHT22;59888;55.814;37.132;2023-12-04T10:56:24;-3.98;61.10
71396;DHT22;59888;55.814;37.132;2023-12-04T10:58:53;-3.95;61.54
71396;DHT22;59888;55.814;37.132;2023-12-04T11:01:21;-3.97;60.47
71396;DHT22;59888;55.814;37.132;2023-12-04T11:03:52;-4.13;60.74
71396;DHT22;59888;55.814;37.132;2023-12-04T11:06:21;-4.14;60.97
71396;DHT22;59888;55.814;37.132;2023-12-04T11:08:48;-4.20;61.18
71396;DHT22;59888;55.814;37.132;2023-12-04T11:11:29;-4.15;61.15
71396;DHT22;59888;55.814;37.132;2023-12-04T11:14:02;-4.22;61.15
71396;DHT22;59888;55.814;37.132;2023-12-04T11:16:35;-4.16;61.12
71396;DHT22;59888;55.814;37.132;2023-12-04T11:21:31;-4.22;61.54
71396;DHT22;59888;55.814;37.132;2023-12-04T11:23:59;-4.21;61.63
71396;DHT22;59888;55.814;37.132;2023-12-04T11:26:25;-4.16;61.65
71396;DHT22;59888;55.814;37.132;2023-12-04T11:28:52;-4.10;61.75
71396;DHT22;59888;55.814;37.132;2023-12-04T11:31:19;-4.04;61.84
71396;DHT22;59888;55.814;37.132;2023-12-04T11:33:46;-4.00;61.67
71396;DHT22;59888;55.814;37.132;2023-12-04T11:36:13;-4.00;61.82
71396;DHT22;59888;55.814;37.132;2023-12-04T11:38:48;-3.94;61.93
71396;DHT22;59888;55.814;37.132;2023-12-04T11:41:24;-3.90;61.90
71396;DHT22;59888;55.814;37.132;2023-12-04T11:43:52;-3.89;61.92
71396;DHT22;59888;55.814;37.132;2023-12-04T11:46:22;-3.94;61.92
71396;DHT22;59888;55.814;37.132;2023-12-04T11:48:54;-3.86;62.15
71396;DHT22;59888;55.814;37.132;2023-12-04T11:54:09;-3.87;62.27
71396;DHT22;59888;55.814;37.132;2023-12-04T11:56:37;-3.93;62.25
71396;DHT22;59888;55.814;37.132;2023-12-04T11:59:04;-3.85;62.28
71396;DHT22;59888;55.814;37.132;2023-12-04T12:01:36;-3.83;62.15
71396;DHT22;59888;55.814;37.132;2023-12-04T12:04:11;-3.93;62.25
71396;DHT22;59888;55.814;37.132;2023-12-04T12:06:38;-3.95;62.44
71396;DHT22;59888;55.814;37.132;2023-12-04T12:09:05;-3.92;62.57
71396;DHT22;59888;55.814;37.132;2023-12-04T12:11:32;-3.91;62.62
71396;DHT22;59888;55.814;37.132;2023-12-04T12:13:59;-3.89;62.50
71396;DHT22;59888;55.814;37.132;2023-12-04T12:16:27;-3.90;62.62
71396;DHT22;59888;55.814;37.132;2023-12-04T12:18:53;-3.89;62.76
71396;DHT22;59888;55.814;37.132;2023-12-04T12:21:19;-3.81;62.79
71396;DHT22;59888;55.814;37.132;2023-12-04T12:23:50;-3.75;62.78
71396;DHT22;59888;55.814;37.132;2023-12-04T12:26:16;-3.76;62.64
71396;DHT22;59888;55.814;37.132;2023-12-04T12:28:42;-3.81;62.50
71396;DHT22;59888;55.814;37.132;2023-12-04T12:31:09;-3.91;62.87
71396;DHT22;59888;55.814;37.132;2023-12-04T12:33:35;-3.94;63.40
71396;DHT22;59888;55.814;37.132;2023-12-04T12:36:01;-3.91;63.43
71396;DHT22;59888;55.814;37.132;2023-12-04T12:38:30;-3.82;63.01
71396;DHT22;59888;55.814;37.132;2023-12-04T12:41:00;-3.77;62.99
71396;DHT22;59888;55.814;37.132;2023-12-04T12:43:32;-3.76;62.85
71396;DHT22;59888;55.814;37.132;2023-12-04T12:45:59;-3.78;62.76
71396;DHT22;59888;55.814;37.132;2023-12-04T12:48:27;-3.82;62.85
71396;DHT22;59888;55.814;37.132;2023-12-04T12:50:54;-3.79;62.96
71396;DHT22;59888;55.814;37.132;2023-12-04T12:53:21;-3.80;62.96
71396;DHT22;59888;55.814;37.132;2023-12-04T12:55:52;-3.82;63.22
71396;DHT22;59888;55.814;37.132;2023-12-04T12:58:19;-3.81;63.21
71396;DHT22;59888;55.814;37.132;2023-12-04T13:00:47;-3.83;63.19
71396;DHT22;59888;55.814;37.132;2023-12-04T13:03:17;-3.82;63.01
71396;DHT22;59888;55.814;37.132;2023-12-04T13:05:44;-3.86;63.08
71396;DHT22;59888;55.814;37.132;2023-12-04T13:08:10;-3.91;63.38
71396;DHT22;59888;55.814;37.132;2023-12-04T13:10:41;-3.87;63.70
71396;DHT22;59888;55.814;37.132;2023-12-04T13:13:12;-3.92;63.30
71396;DHT22;59888;55.814;37.132;2023-12-04T13:15:49;-3.99;63.61
71396;DHT22;59888;55.814;37.132;2023-12-04T13:18:15;-4.00;63.56
71396;DHT22;59888;55.814;37.132;2023-12-04T13:20:41;-4.00;63.62
71396;DHT22;59888;55.814;37.132;2023-12-04T13:23:09;-3.97;63.55
71396;DHT22;59888;55.814;37.132;2023-12-04T13:25:37;-3.98;63.66
71396;DHT22;59888;55.814;37.132;2023-12-04T13:28:04;-3.97;63.66
71396;DHT22;59888;55.814;37.132;2023-12-04T13:30:31;-3.98;63.53
71396;DHT22;59888;55.814;37.132;2023-12-04T13:32:57;-3.98;63.70
71396;DHT22;59888;55.814;37.132;2023-12-04T13:35:28;-4.00;63.55
71396;DHT22;59888;55.814;37.132;2023-12-04T13:37:54;-4.00;63.83
71396;DHT22;59888;55.814;37.132;2023-12-04T13:40:22;-3.99;63.76
71396;DHT22;59888;55.814;37.132;2023-12-04T13:42:52;-4.00;63.90
71396;DHT22;59888;55.814;37.132;2023-12-04T13:46:02;-3.99;63.88
71396;DHT22;59888;55.814;37.132;2023-12-04T13:48:35;-4.08;64.08
71396;DHT22;59888;55.814;37.132;2023-12-04T13:51:01;-4.05;64.18
71396;DHT22;59888;55.814;37.132;2023-12-04T13:53:27;-4.09;64.19
71396;DHT22;59888;55.814;37.132;2023-12-04T13:55:56;-4.13;64.30
71396;DHT22;59888;55.814;37.132;2023-12-04T13:58:42;-4.10;64.43
71396;DHT22;59888;55.814;37.132;2023-12-04T14:01:11;-4.11;64.33
71396;DHT22;59888;55.814;37.132;2023-12-04T14:03:42;-4.08;64.43
71396;DHT22;59888;55.814;37.132;2023-12-04T14:06:09;-4.01;64.28
71396;DHT22;59888;55.814;37.132;2023-12-04T14:08:36;-3.97;64.27
71396;DHT22;59888;55.814;37.132;2023-12-04T14:11:04;-3.99;64.16
71396;DHT22;59888;55.814;37.132;2023-12-04T14:13:34;-4.00;64.08
71396;DHT22;59888;55.814;37.132;2023-12-04T14:16:06;-4.04;63.91
71396;DHT22;59888;55.814;37.132;2023-12-04T14:18:33;-4.06;63.84
71396;DHT22;59888;55.814;37.132;2023-12-04T14:21:00;-4.08;63.94
71396;DHT22;59888;55.814;37.132;2023-12-04T14:23:27;-4.14;64.05
71396;DHT22;59888;55.814;37.132;2023-12-04T14:29:54;-4.25;64.24
71396;DHT22;59888;55.814;37.132;2023-12-04T14:32:20;-4.31;64.13
71396;DHT22;59888;55.814;37.132;2023-12-04T14:34:47;-4.43;64.36
71396;DHT22;59888;55.814;37.132;2023-12-04T14:37:13;-4.53;64.56
71396;DHT22;59888;55.814;37.132;2023-12-04T14:39:39;-4.59;64.56
71396;DHT22;59888;55.814;37.132;2023-12-04T14:42:05;-4.70;64.84
71396;DHT22;59888;55.814;37.132;2023-12-04T14:44:31;-4.76;64.98
71396;DHT22;59888;55.814;37.132;2023-12-04T14:46:58;-4.80;64.72
71396;DHT22;59888;55.814;37.132;2023-12-04T14:49:25;-4.86;64.72
71396;DHT22;59888;55.814;37.132;2023-12-04T14:51:51;-4.93;64.91
71396;DHT22;59888;55.814;37.132;2023-12-04T14:54:18;-5.00;65.02
71396;DHT22;59888;55.814;37.132;2023-12-04T14:56:48;-5.09;65.08
71396;DHT22;59888;55.814;37.132;2023-12-04T14:59:17;-5.17;65.51
71396;DHT22;59888;55.814;37.132;2023-12-04T15:01:44;-5.25;65.50
71396;DHT22;59888;55.814;37.132;2023-12-04T15:08:05;-5.32;65.35
71396;DHT22;59888;55.814;37.132;2023-12-04T15:10:50;-5.35;65.27
71396;DHT22;59888;55.814;37.132;2023-12-04T15:13:35;-5.43;65.24
71396;DHT22;59888;55.814;37.132;2023-12-04T15:16:04;-5.48;65.36
71396;DHT22;59888;55.814;37.132;2023-12-04T15:18:52;-5.55;65.71
71396;DHT22;59888;55.814;37.132;2023-12-04T15:21:18;-5.57;65.52
71396;DHT22;59888;55.814;37.132;2023-12-04T15:23:44;-5.59;65.53
71396;DHT22;59888;55.814;37.132;2023-12-04T15:26:11;-5.62;65.37
71396;DHT22;59888;55.814;37.132;2023-12-04T15:28:39;-5.69;65.55
71396;DHT22;59888;55.814;37.132;2023-12-04T15:31:05;-5.72;65.54
71396;DHT22;59888;55.814;37.132;2023-12-04T15:33:32;-5.76;65.43
71396;DHT22;59888;55.814;37.132;2023-12-04T15:35:58;-5.82;65.70
71396;DHT22;59888;55.814;37.132;2023-12-04T15:38:28;-5.85;65.38
71396;DHT22;59888;55.814;37.132;2023-12-04T15:40:55;-5.88;65.40
71396;DHT22;59888;55.814;37.132;2023-12-04T15:43:26;-5.91;65.56
71396;DHT22;59888;55.814;37.132;2023-12-04T15:45:52;-5.91;65.35
71396;DHT22;59888;55.814;37.132;2023-12-04T15:48:21;-5.98;65.66
71396;DHT22;59888;55.814;37.132;2023-12-04T15:50:47;-6.03;65.66
71396;DHT22;59888;55.814;37.132;2023-12-04T15:53:13;-6.06;65.83
71396;DHT22;59888;55.814;37.132;2023-12-04T15:55:40;-6.08;65.79